Depesze METAR lotnisk w Polsce

EPWA EPMO EPKK EPLL EPWR EPKT EPGD EPPO EPRZ EPSC EPLB EPBY EPZG EPSY EPCE EPDA EPDE EPIR EPKS EPLK EPLY EPMB EPMI EPMM EPNA EPOK EPPR EPPW EPRA EPSN EPTM

METAR – format kodowanego raportu o pogodzie używany w meteorologii lotniczej i prognozie pogody. METAR jest akronimem od ang. Meteorological Aerodrome Report. Typowy METAR zawiera informację o temperaturze, ciśnieniu, temperaturze punktu rosy, sile i kierunku wiatru, opadzie, pokrywie chmur, wysokości podstawy chmur, widzialności, lecz może zawierać też inne informacje (np. stan dróg startowych).

Warszawa-Okęcie (EPWA)

METAR = EPWA 160300Z 26010KT 9999 FEW013 BKN023 09/07 Q1016 NOSIG

STACJA........... EPWA - Warszawa-Okęcie (WAW)
POMIAR........... Sat Oct 16, 05:00 CEST
WIATR............ zachodni (W) z prędkością 19 km/h
WIDZIALNOŚĆ...... powyżej 10 kilometrów
CHMURY........... zachmurzenie średnie (5/8-7/8)
TEMPERATURA...... 9°C
T.PUNKTU ROSY.... 7°C
WILGOTNOŚĆ....... 87%
T.ODCZUWALNA..... 6°C
CIŚNIENIE........ 1016 hPa
CIŚN.BEZWZGL..... 1003 hPa
PROGNOZA......... bez nagłych zmian w ciągu 2h

Sprawdź też: Prognoza pogody Warszawa


Warszawa-Modlin (EPMO)

METAR = EPMO 160300Z 24009KT 9999 BKN021 09/09 Q1015 =

STACJA........... EPMO - Warszawa-Modlin (WMI)
POMIAR........... Sat Oct 16, 05:00 CEST
WIATR............ zachodni południowo-zachodni (WSW) z prędkością 17 km/h
WIDZIALNOŚĆ...... powyżej 10 kilometrów
CHMURY........... zachmurzenie średnie (5/8-7/8)
TEMPERATURA...... 9°C
T.PUNKTU ROSY.... 9°C
WILGOTNOŚĆ....... 100%
T.ODCZUWALNA..... 6°C
CIŚNIENIE........ 1015 hPa
CIŚN.BEZWZGL..... 1002 hPa

Sprawdź też: Prognoza pogody Nowy Dwór Mazowiecki


Kraków-Balice (EPKK)

METAR = EPKK 160300Z 23004KT 9999 BKN026 07/06 Q1019

STACJA........... EPKK - Kraków-Balice (KRK)
POMIAR........... Sat Oct 16, 05:00 CEST
WIATR............ południowo-zachodni (SW) z prędkością 7 km/h
WIDZIALNOŚĆ...... powyżej 10 kilometrów
CHMURY........... zachmurzenie średnie (5/8-7/8)
TEMPERATURA...... 7°C
T.PUNKTU ROSY.... 6°C
WILGOTNOŚĆ....... 93%
T.ODCZUWALNA..... 6°C
CIŚNIENIE........ 1019 hPa
CIŚN.BEZWZGL..... 989 hPa

Sprawdź też: Prognoza pogody Kraków


Łódź-Lublinek (EPLL)

METAR = EPLL 160300Z 26009KT 9999 SCT010 BKN015 08/06 Q1017

STACJA........... EPLL - Łódź-Lublinek (LCJ)
POMIAR........... Sat Oct 16, 05:00 CEST
WIATR............ zachodni (W) z prędkością 17 km/h
WIDZIALNOŚĆ...... powyżej 10 kilometrów
CHMURY........... zachmurzenie średnie (5/8-7/8)
TEMPERATURA...... 8°C
T.PUNKTU ROSY.... 6°C
WILGOTNOŚĆ....... 87%
T.ODCZUWALNA..... 5°C
CIŚNIENIE........ 1017 hPa
CIŚN.BEZWZGL..... 994 hPa

Sprawdź też: Prognoza pogody Łódź


Wrocław-Strachowice (EPWR)

METAR = EPWR 160300Z 26005KT CAVOK 05/05 Q1019

STACJA........... EPWR - Wrocław-Strachowice (WRO)
POMIAR........... Sat Oct 16, 05:00 CEST
WIATR............ zachodni (W) z prędkością 9 km/h
WIDZIALNOŚĆ...... powyżej 10 kilometrów
CHMURY........... bezchmurne niebo
TEMPERATURA...... 5°C
T.PUNKTU ROSY.... 5°C
WILGOTNOŚĆ....... 100%
T.ODCZUWALNA..... 3°C
CIŚNIENIE........ 1019 hPa
CIŚN.BEZWZGL..... 1004 hPa

Sprawdź też: Prognoza pogody Wrocław


Katowice-Pyrzowice (EPKT)

METAR = EPKT 160300Z 27005KT 9999 SCT005 BKN008 07/06 Q1019

STACJA........... EPKT - Katowice-Pyrzowice (KTW)
POMIAR........... Sat Oct 16, 05:00 CEST
WIATR............ zachodni (W) z prędkością 9 km/h
WIDZIALNOŚĆ...... powyżej 10 kilometrów
CHMURY........... zachmurzenie średnie (5/8-7/8)
TEMPERATURA...... 7°C
T.PUNKTU ROSY.... 6°C
WILGOTNOŚĆ....... 93%
T.ODCZUWALNA..... 6°C
CIŚNIENIE........ 1019 hPa
CIŚN.BEZWZGL..... 982 hPa

Sprawdź też: Prognoza pogody Katowice


Gdańsk (EPGD)

METAR = EPGD 160300Z 23008KT 9999 SCT020 07/06 Q1012

STACJA........... EPGD - Gdańsk im. Lecha Wałęsy (GDN)
POMIAR........... Sat Oct 16, 05:00 CEST
WIATR............ południowo-zachodni (SW) z prędkością 15 km/h
WIDZIALNOŚĆ...... powyżej 10 kilometrów
CHMURY........... zachmurzenie małe (3/8-4/8)
TEMPERATURA...... 7°C
T.PUNKTU ROSY.... 6°C
WILGOTNOŚĆ....... 93%
T.ODCZUWALNA..... 4°C
CIŚNIENIE........ 1012 hPa
CIŚN.BEZWZGL..... 994 hPa

Sprawdź też: Prognoza pogody Gdańsk


Poznań-Ławica (EPPO)

METAR = EPPO 160300Z 27007KT 9999 FEW004 SCT037 05/05 Q1017

STACJA........... EPPO - Poznań-Ławica (POZ)
POMIAR........... Sat Oct 16, 05:00 CEST
WIATR............ zachodni (W) z prędkością 13 km/h
WIDZIALNOŚĆ...... powyżej 10 kilometrów
CHMURY........... zachmurzenie małe (3/8-4/8)
TEMPERATURA...... 5°C
T.PUNKTU ROSY.... 5°C
WILGOTNOŚĆ....... 100%
T.ODCZUWALNA..... 2°C
CIŚNIENIE........ 1017 hPa
CIŚN.BEZWZGL..... 1005 hPa

Sprawdź też: Prognoza pogody Poznań


Rzeszów-Jasionka (EPRZ)

METAR = EPRZ 160300Z 27009KT 9999 FEW015CB BKN028 09/07 Q1017

STACJA........... EPRZ - Rzeszów-Jasionka (RZE)
POMIAR........... Sat Oct 16, 05:00 CEST
WIATR............ zachodni (W) z prędkością 17 km/h
WIDZIALNOŚĆ...... powyżej 10 kilometrów
CHMURY........... zachmurzenie średnie (5/8-7/8)
TEMPERATURA...... 9°C
T.PUNKTU ROSY.... 7°C
WILGOTNOŚĆ....... 87%
T.ODCZUWALNA..... 6°C
CIŚNIENIE........ 1017 hPa
CIŚN.BEZWZGL..... 991 hPa

Sprawdź też: Prognoza pogody Rzeszów


Szczecin-Goleniów (EPSC)

METAR = EPSC 160300Z 25007KT CAVOK 06/05 Q1017

STACJA........... EPSC - Szczecin-Goleniów (SZZ)
POMIAR........... Sat Oct 16, 05:00 CEST
WIATR............ zachodni południowo-zachodni (WSW) z prędkością 13 km/h
WIDZIALNOŚĆ...... powyżej 10 kilometrów
CHMURY........... bezchmurne niebo
TEMPERATURA...... 6°C
T.PUNKTU ROSY.... 5°C
WILGOTNOŚĆ....... 93%
T.ODCZUWALNA..... 3°C
CIŚNIENIE........ 1017 hPa
CIŚN.BEZWZGL..... 1011 hPa

Sprawdź też: Prognoza pogody Szczecin


Lublin-Świdnik (EPLB)

METAR = EPLB 160300Z 30009KT 9999 BKN022 09/08 Q1016 =

STACJA........... EPLB - Lublin-Świdnik (LUZ)
POMIAR........... Sat Oct 16, 05:00 CEST
WIATR............ zachodni północno-zachodni (WNW) z prędkością 17 km/h
WIDZIALNOŚĆ...... powyżej 10 kilometrów
CHMURY........... zachmurzenie średnie (5/8-7/8)
TEMPERATURA...... 9°C
T.PUNKTU ROSY.... 8°C
WILGOTNOŚĆ....... 94%
T.ODCZUWALNA..... 6°C
CIŚNIENIE........ 1016 hPa
CIŚN.BEZWZGL..... 991 hPa

Sprawdź też: Prognoza pogody Lublin


Bydgoszcz-Szwederowo (EPBY)

METAR = EPBY 160300Z 25009KT 9999 BKN007 06/05 Q1016=

STACJA........... EPBY - Bydgoszcz-Szwederowo (BZG)
POMIAR........... Sat Oct 16, 05:00 CEST
WIATR............ zachodni południowo-zachodni (WSW) z prędkością 17 km/h
WIDZIALNOŚĆ...... powyżej 10 kilometrów
CHMURY........... zachmurzenie średnie (5/8-7/8)
TEMPERATURA...... 6°C
T.PUNKTU ROSY.... 5°C
WILGOTNOŚĆ....... 93%
T.ODCZUWALNA..... 3°C
CIŚNIENIE........ 1016 hPa
CIŚN.BEZWZGL..... 1007 hPa

Sprawdź też: Prognoza pogody Bydgoszcz


Zielona Góra-Babimost (EPZG)

METAR = EPZG 160300Z 23008KT 8000 FEW004 05/05 Q1019 =

STACJA........... EPZG - Zielona Góra-Babimost (IEG)
POMIAR........... Sat Oct 16, 05:00 CEST
WIATR............ południowo-zachodni (SW) z prędkością 15 km/h
WIDZIALNOŚĆ...... 8000 metrów
CHMURY........... zachmurzenie niewielkie (1/8-2/8)
TEMPERATURA...... 5°C
T.PUNKTU ROSY.... 5°C
WILGOTNOŚĆ....... 100%
T.ODCZUWALNA..... 2°C
CIŚNIENIE........ 1019 hPa
CIŚN.BEZWZGL..... 1012 hPa

Sprawdź też: Prognoza pogody Zielona Góra


Szymany Olsztyn-Mazury (EPSY)

METAR = EPSY 160300Z 25005KT 9999 BKN013 08/08 Q1013=

STACJA........... EPSY - Olsztyn-Mazury (SZY)
POMIAR........... Sat Oct 16, 05:00 CEST
WIATR............ zachodni południowo-zachodni (WSW) z prędkością 9 km/h
WIDZIALNOŚĆ...... powyżej 10 kilometrów
CHMURY........... zachmurzenie średnie (5/8-7/8)
TEMPERATURA...... 8°C
T.PUNKTU ROSY.... 8°C
WILGOTNOŚĆ....... 100%
T.ODCZUWALNA..... 6°C
CIŚNIENIE........ 1013 hPa
CIŚN.BEZWZGL..... 996 hPa

Sprawdź też: Prognoza pogody Olsztyn


Cewice (EPCE)

METAR = EPCE 160300Z 24009KT 9999 SCT027 06/06 Q1013 RMK 062 096 3/3=

STACJA........... EPCE - Cewice
POMIAR........... Sat Oct 16, 05:00 CEST
WIATR............ zachodni południowo-zachodni (WSW) z prędkością 17 km/h
WIDZIALNOŚĆ...... powyżej 10 kilometrów
CHMURY........... zachmurzenie małe (3/8-4/8)
TEMPERATURA...... 6°C
T.PUNKTU ROSY.... 6°C
WILGOTNOŚĆ....... 100%
T.ODCZUWALNA..... 3°C
CIŚNIENIE........ 1013 hPa
CIŚN.BEZWZGL..... 995 hPa

Darłowo (EPDA)

METAR = EPDA 160300Z 28015KT 260V320 9999 BKN026 11/06 Q1014 RMK 114 072 5/5=

STACJA........... EPDA - Darłowo
POMIAR........... Sat Oct 16, 05:00 CEST
WIATR............ zachodni (W) z prędkością 28 km/h
WIDZIALNOŚĆ...... powyżej 10 kilometrów
CHMURY........... zachmurzenie średnie (5/8-7/8)
TEMPERATURA...... 11°C
T.PUNKTU ROSY.... 6°C
WILGOTNOŚĆ....... 72%
CIŚNIENIE........ 1014 hPa
CIŚN.BEZWZGL..... 1014 hPa

Dęblin (EPDE)

METAR = EPDE 160300Z AUTO 25006KT 9999 ///021 ///027 ///031 09/06 Q1016 RMK 087 082 ///=

STACJA........... EPDE - Dęblin
POMIAR........... Sat Oct 16, 05:00 CEST
WIATR............ zachodni południowo-zachodni (WSW) z prędkością 11 km/h
WIDZIALNOŚĆ...... powyżej 10 kilometrów

Inowrocław-Latkowo (EPIR)

METAR = EPIR 160300Z AUTO 25012KT VV009 07/05 Q1016 RMK 071 089 ///=

STACJA........... EPIR - Inowrocław-Latkowo
POMIAR........... Sat Oct 16, 05:00 CEST
WIATR............ zachodni południowo-zachodni (WSW) z prędkością 22 km/h
CHMURY........... widzialność pionowa do 274 metrów
TEMPERATURA...... 7°C
T.PUNKTU ROSY.... 5°C
WILGOTNOŚĆ....... 87%
T.ODCZUWALNA..... 4°C
CIŚNIENIE........ 1016 hPa
CIŚN.BEZWZGL..... 1006 hPa

Poznań-Krzesiny (EPKS)

METAR = EPKS 160300Z 27007KT 9999 FEW007 06/06 Q1017 RMK 057 100 2/2=

STACJA........... EPKS - Poznań-Krzesiny
POMIAR........... Sat Oct 16, 05:00 CEST
WIATR............ zachodni (W) z prędkością 13 km/h
WIDZIALNOŚĆ...... powyżej 10 kilometrów
CHMURY........... zachmurzenie niewielkie (1/8-2/8)
TEMPERATURA...... 6°C
T.PUNKTU ROSY.... 6°C
WILGOTNOŚĆ....... 100%
T.ODCZUWALNA..... 3°C
CIŚNIENIE........ 1017 hPa
CIŚN.BEZWZGL..... 1007 hPa

Łask (EPLK)

METAR = EPLK 160300Z 27007KT 9999 OVC010 08/08 Q1017 RMK 077 100 8/8=

STACJA........... EPLK - Łask
POMIAR........... Sat Oct 16, 05:00 CEST
WIATR............ zachodni (W) z prędkością 13 km/h
WIDZIALNOŚĆ...... powyżej 10 kilometrów
CHMURY........... zachmurzenie całkowite (8/8)
TEMPERATURA...... 8°C
T.PUNKTU ROSY.... 8°C
WILGOTNOŚĆ....... 100%
T.ODCZUWALNA..... 6°C
CIŚNIENIE........ 1017 hPa
CIŚN.BEZWZGL..... 994 hPa

Łęczyca (EPLY)

METAR = EPLY 160300Z AUTO 28006KT VV021 08/07 Q1017 RMK 084 088 ///=

STACJA........... EPLY - Łęczyca
POMIAR........... Sat Oct 16, 05:00 CEST
WIATR............ zachodni (W) z prędkością 11 km/h
CHMURY........... widzialność pionowa do 640 metrów
TEMPERATURA...... 8°C
T.PUNKTU ROSY.... 7°C
WILGOTNOŚĆ....... 93%
T.ODCZUWALNA..... 6°C
CIŚNIENIE........ 1017 hPa
CIŚN.BEZWZGL..... 1003 hPa

Malbork (EPMB)

METAR = EPMB 160300Z 22011KT 9999 SCT060 07/07 Q1013 RMK 071 097 4/4=

STACJA........... EPMB - Malbork
POMIAR........... Sat Oct 16, 05:00 CEST
WIATR............ południowo-zachodni (SW) z prędkością 20 km/h
WIDZIALNOŚĆ...... powyżej 10 kilometrów
CHMURY........... zachmurzenie małe (3/8-4/8)
TEMPERATURA...... 7°C
T.PUNKTU ROSY.... 7°C
WILGOTNOŚĆ....... 100%
T.ODCZUWALNA..... 4°C
CIŚNIENIE........ 1013 hPa
CIŚN.BEZWZGL..... 1012 hPa

Mirosławiec (EPMI)

METAR = EPMI 160300Z NIL=

STACJA........... EPMI - Mirosławiec
POMIAR........... Sat Oct 16, 05:00 CEST
DEPESZA.......... brak aktualnej prognozy w treści depeszy

Mińsk Mazowiecki (EPMM)

METAR = EPMM 160300Z 30010KT 9999 BKN011 OVC020 08/08 Q1015 RMK 084 098 8/6=

STACJA........... EPMM - Mińsk Mazowiecki
POMIAR........... Sat Oct 16, 05:00 CEST
WIATR............ zachodni północno-zachodni (WNW) z prędkością 19 km/h
WIDZIALNOŚĆ...... powyżej 10 kilometrów
CHMURY........... zachmurzenie całkowite (8/8)
TEMPERATURA...... 8°C
T.PUNKTU ROSY.... 8°C
WILGOTNOŚĆ....... 100%
T.ODCZUWALNA..... 5°C
CIŚNIENIE........ 1015 hPa
CIŚN.BEZWZGL..... 993 hPa

Nadarzyce (EPNA)

METAR = EPNA 160300Z NIL=

STACJA........... EPNA - Nadarzyce
POMIAR........... Sat Oct 16, 05:00 CEST
DEPESZA.......... brak aktualnej prognozy w treści depeszy

Gdynia-Kosakowo (EPOK)

METAR = EPOK 160300Z 24007KT 9999 FEW048 BKN076 08/06 Q1012 RMK 080 086 5/1=

STACJA........... EPOK - Gdynia-Kosakowo
POMIAR........... Sat Oct 16, 05:00 CEST
WIATR............ zachodni południowo-zachodni (WSW) z prędkością 13 km/h
WIDZIALNOŚĆ...... powyżej 10 kilometrów
CHMURY........... zachmurzenie średnie (5/8-7/8)
TEMPERATURA...... 8°C
T.PUNKTU ROSY.... 6°C
WILGOTNOŚĆ....... 87%
T.ODCZUWALNA..... 6°C
CIŚNIENIE........ 1012 hPa
CIŚN.BEZWZGL..... 1006 hPa

Pruszcz Gdański (EPPR)

METAR = EPPR 160300Z AUTO /////KT 08/06 Q1013 RMK 076 087 ///=

STACJA........... EPPR - Pruszcz Gdański
POMIAR........... Sat Oct 16, 05:00 CEST

Powidz (EPPW)

METAR = EPPW 160300Z 27008KT 9999 SCT007 07/07 Q1017 RMK 070 100 4/4=

STACJA........... EPPW - Powidz
POMIAR........... Sat Oct 16, 05:00 CEST
WIATR............ zachodni (W) z prędkością 15 km/h
WIDZIALNOŚĆ...... powyżej 10 kilometrów
CHMURY........... zachmurzenie małe (3/8-4/8)
TEMPERATURA...... 7°C
T.PUNKTU ROSY.... 7°C
WILGOTNOŚĆ....... 100%
T.ODCZUWALNA..... 4°C
CIŚNIENIE........ 1017 hPa
CIŚN.BEZWZGL..... 1003 hPa

Radom-Sadków (EPRA)

METAR = EPRA 160300Z 26006KT 9999 SCT013 BKN035 09/06 Q1017 RMK 085 085 7/3=

STACJA........... EPRA - Radom-Sadków
POMIAR........... Sat Oct 16, 05:00 CEST
WIATR............ zachodni (W) z prędkością 11 km/h
WIDZIALNOŚĆ...... powyżej 10 kilometrów
CHMURY........... zachmurzenie średnie (5/8-7/8)
TEMPERATURA...... 9°C
T.PUNKTU ROSY.... 6°C
WILGOTNOŚĆ....... 82%
T.ODCZUWALNA..... 7°C
CIŚNIENIE........ 1017 hPa
CIŚN.BEZWZGL..... 995 hPa

Świdwin (EPSN)

METAR = EPSN 160300Z 25008KT 9999 SCT025 BKN040 06/05 Q1015 RMK 062 095 6/4=

STACJA........... EPSN - Świdwin
POMIAR........... Sat Oct 16, 05:00 CEST
WIATR............ zachodni południowo-zachodni (WSW) z prędkością 15 km/h
WIDZIALNOŚĆ...... powyżej 10 kilometrów
CHMURY........... zachmurzenie średnie (5/8-7/8)
TEMPERATURA...... 6°C
T.PUNKTU ROSY.... 5°C
WILGOTNOŚĆ....... 93%
T.ODCZUWALNA..... 3°C
CIŚNIENIE........ 1015 hPa
CIŚN.BEZWZGL..... 1001 hPa

Tomaszów Mazowiecki (EPTM)

METAR = EPTM 160300Z AUTO 25004KT VV026 08/07 Q1017 RMK 082 092 ///=

STACJA........... EPTM - Tomaszów Mazowiecki
POMIAR........... Sat Oct 16, 05:00 CEST
WIATR............ zachodni południowo-zachodni (WSW) z prędkością 7 km/h
CHMURY........... widzialność pionowa do 792 metrów
TEMPERATURA...... 8°C
T.PUNKTU ROSY.... 7°C
WILGOTNOŚĆ....... 93%
T.ODCZUWALNA..... 7°C
CIŚNIENIE........ 1017 hPa
CIŚN.BEZWZGL..... 996 hPa